createdAt,value
2024-04-10T07:19:26.819Z,2.00
2024-04-10T07:21:49.358Z,2.20
2024-04-10T07:25:49.440Z,1.80
2024-04-10T07:30:17.474Z,2.20
2024-04-10T07:32:41.143Z,1.70
2024-04-10T07:33:51.398Z,1.70
2024-04-10T07:37:49.523Z,2.50
2024-04-10T07:41:49.511Z,2.10
2024-04-10T07:45:50.020Z,2.20
2024-04-10T07:49:51.615Z,2.40
2024-04-10T07:53:49.994Z,2.10
2024-04-10T07:57:49.451Z,2.00
2024-04-10T08:01:49.819Z,2.30
2024-04-10T08:05:49.923Z,1.90
2024-04-10T08:09:49.751Z,2.30
2024-04-10T08:13:50.229Z,2.20
2024-04-10T08:17:49.943Z,2.00
2024-04-10T08:21:49.568Z,1.90
2024-04-10T08:25:49.603Z,2.00
2024-04-10T08:29:49.886Z,2.10
2024-04-10T08:37:50.677Z,2.10
2024-04-10T08:41:49.629Z,2.10
2024-04-10T08:45:50.381Z,2.10
2024-04-10T08:49:50.140Z,2.40
2024-04-10T08:53:51.124Z,2.00
2024-04-10T08:57:49.643Z,2.00
2024-04-10T09:01:51.000Z,1.60
2024-04-10T09:05:49.682Z,2.00
2024-04-10T09:09:52.196Z,2.00
2024-04-10T09:13:59.189Z,2.10
2024-04-10T09:17:54.572Z,1.80
2024-04-10T09:21:56.274Z,2.00
2024-04-10T09:25:50.101Z,1.80
2024-04-10T09:29:58.714Z,2.00
2024-04-10T09:33:50.228Z,1.50
2024-04-10T09:37:52.058Z,1.60
2024-04-10T09:41:58.362Z,1.50
2024-04-10T09:45:57.010Z,1.40
2024-04-10T09:49:55.823Z,2.00
2024-04-10T09:53:50.733Z,1.70
2024-04-10T09:57:51.087Z,1.80
2024-04-10T10:01:54.652Z,1.40
2024-04-10T10:09:50.332Z,1.90
2024-04-10T10:13:56.777Z,1.70
2024-04-10T10:17:57.178Z,1.20
2024-04-10T10:21:59.345Z,1.50
2024-04-10T10:25:49.993Z,1.80
2024-04-10T10:29:49.899Z,1.10
2024-04-10T10:33:58.432Z,1.10
2024-04-10T10:37:50.131Z,1.40
2024-04-10T10:41:59.382Z,1.30
2024-04-10T10:45:51.712Z,1.40
2024-04-10T10:53:50.470Z,1.00
2024-04-10T11:01:49.959Z,1.60
2024-04-10T11:05:50.549Z,1.00
2024-04-10T11:09:50.030Z,1.20
2024-04-10T11:13:50.341Z,1.40
2024-04-10T11:18:00.860Z,1.30
2024-04-10T11:21:50.110Z,1.20
2024-04-10T11:25:50.342Z,1.50
2024-04-10T11:29:50.808Z,1.50
2024-04-10T11:33:50.226Z,1.30
2024-04-10T11:37:50.636Z,1.80
2024-04-10T11:41:50.162Z,1.30
2024-04-10T11:45:50.202Z,1.60
2024-04-10T11:49:50.061Z,1.60
2024-04-10T11:53:50.320Z,1.30
2024-04-10T11:57:50.947Z,1.60
2024-04-10T12:01:50.615Z,1.60
2024-04-10T12:05:50.521Z,1.40
2024-04-10T12:09:50.250Z,1.50
2024-04-10T12:13:50.137Z,1.30
2024-04-10T12:21:50.267Z,1.70
2024-04-10T12:25:50.196Z,0.90
2024-04-10T12:29:50.501Z,1.30
2024-04-10T12:33:51.739Z,1.20
2024-04-10T12:41:50.380Z,1.60
2024-04-10T12:45:51.182Z,1.70
2024-04-10T12:49:51.133Z,2.00
2024-04-10T12:53:50.508Z,1.50
2024-04-10T12:57:50.289Z,1.70
2024-04-10T13:01:53.861Z,1.70
2024-04-10T13:05:54.026Z,1.80
2024-04-10T13:09:51.299Z,1.80
2024-04-10T13:13:50.338Z,1.70
2024-04-10T13:17:50.657Z,1.60
2024-04-10T13:21:50.315Z,1.80
2024-04-10T13:25:59.278Z,1.90
2024-04-10T13:29:50.528Z,1.70
2024-04-10T13:33:52.119Z,1.80
2024-04-10T13:37:50.400Z,1.70
2024-04-10T13:41:50.781Z,1.50
2024-04-10T13:45:50.447Z,1.50
2024-04-10T13:49:50.559Z,1.60
2024-04-10T13:53:50.637Z,1.40
2024-04-10T13:57:50.535Z,1.50
2024-04-10T14:01:50.646Z,1.60
2024-04-10T14:05:59.029Z,1.60
2024-04-10T14:09:50.462Z,1.60
2024-04-10T14:13:52.999Z,1.60
2024-04-10T14:17:50.821Z,1.60
2024-04-10T14:21:51.579Z,1.70
2024-04-10T14:25:53.024Z,1.40
2024-04-10T14:29:52.751Z,1.60
2024-04-10T14:33:51.298Z,1.20
2024-04-10T14:37:50.685Z,1.40
2024-04-10T14:41:53.179Z,1.20
2024-04-10T14:45:51.860Z,1.20
2024-04-10T14:49:51.231Z,1.30
2024-04-10T14:53:50.739Z,1.40
2024-04-10T14:57:51.527Z,1.00
2024-04-10T15:01:51.249Z,1.00
2024-04-10T15:05:51.432Z,1.30
2024-04-10T15:09:54.032Z,1.20
2024-04-10T15:13:50.759Z,1.00
2024-04-10T15:17:50.860Z,1.40
2024-04-10T15:21:50.780Z,1.10
2024-04-10T15:29:51.553Z,1.30
2024-04-10T15:33:50.912Z,1.30
2024-04-10T15:37:50.942Z,1.30
2024-04-10T15:41:51.707Z,1.60
2024-04-10T15:45:52.692Z,1.40
2024-04-10T15:49:53.643Z,1.00
2024-04-10T15:53:53.420Z,1.30
2024-04-10T15:57:50.808Z,1.20
2024-04-10T16:01:51.703Z,1.10
2024-04-10T16:05:50.900Z,1.10
2024-04-10T16:09:50.988Z,1.20
2024-04-10T16:13:50.871Z,1.10
2024-04-10T16:17:51.937Z,1.30
2024-04-10T16:21:50.831Z,0.90
2024-04-10T16:25:50.956Z,1.10
2024-04-10T16:29:50.978Z,1.70
2024-04-10T16:33:53.252Z,0.90
2024-04-10T16:37:51.311Z,0.90
2024-04-10T16:41:50.981Z,1.00
2024-04-10T16:45:52.073Z,0.90
2024-04-10T16:53:53.621Z,0.80
2024-04-10T16:57:51.056Z,0.80
2024-04-10T17:05:52.093Z,1.00
2024-04-10T17:09:51.204Z,1.00
2024-04-10T17:13:52.180Z,0.90
2024-04-10T17:25:53.254Z,1.00
2024-04-10T17:29:52.331Z,0.70
2024-04-10T17:33:51.256Z,0.70
2024-04-10T17:37:54.128Z,1.10
2024-04-10T17:41:51.269Z,1.00
2024-04-10T17:45:52.584Z,0.90
2024-04-10T17:53:51.262Z,0.80
2024-04-10T17:57:51.118Z,1.00
2024-04-10T18:01:51.236Z,1.00
2024-04-10T18:06:31.844Z,0.80
2024-04-10T18:09:52.604Z,1.10
2024-04-10T18:17:51.918Z,1.10
2024-04-10T18:21:52.780Z,2.00
2024-04-10T18:25:58.006Z,1.20
2024-04-10T18:29:52.813Z,1.00
2024-04-10T18:33:52.008Z,1.20
2024-04-10T18:37:51.798Z,1.00
2024-04-10T18:41:51.514Z,1.30
2024-04-10T18:45:53.992Z,0.80
2024-04-10T18:49:51.976Z,1.50
2024-04-10T18:53:51.680Z,1.00
2024-04-10T18:57:51.410Z,1.00
2024-04-10T19:05:52.152Z,0.90
2024-04-10T19:09:52.407Z,1.20
2024-04-10T19:13:51.893Z,1.40
2024-04-10T19:21:51.605Z,1.30
2024-04-10T19:25:52.973Z,1.40
2024-04-10T19:29:53.693Z,1.50
2024-04-10T19:33:51.704Z,1.40
2024-04-10T19:37:53.095Z,1.50
2024-04-10T19:41:51.625Z,1.60
2024-04-10T19:45:52.903Z,1.70
2024-04-10T19:49:51.650Z,1.70
2024-04-10T19:53:52.353Z,2.00
2024-04-10T19:57:52.522Z,1.80
2024-04-10T20:01:51.847Z,1.80
2024-04-10T20:05:52.117Z,2.00
2024-04-10T20:09:54.513Z,1.90
2024-04-10T20:13:51.557Z,1.80
2024-04-10T20:17:51.684Z,2.10
2024-04-10T20:21:51.510Z,1.90
2024-04-10T20:29:51.886Z,2.00
2024-04-10T20:33:53.614Z,2.10
2024-04-10T20:37:51.533Z,2.20
2024-04-10T20:41:52.354Z,2.00
2024-04-10T20:45:52.760Z,2.20
2024-04-10T20:49:52.642Z,2.10
2024-04-10T20:53:51.848Z,2.10
2024-04-10T20:57:51.600Z,2.20
2024-04-10T21:01:53.223Z,2.50
2024-04-10T22:13:52.081Z,1.90
2024-04-10T22:25:52.885Z,1.80
2024-04-10T22:29:52.089Z,2.00
2024-04-10T22:33:52.856Z,2.20
2024-04-10T22:37:51.912Z,2.00
2024-04-10T22:41:52.811Z,2.00
2024-04-10T22:45:52.079Z,1.70
2024-04-10T22:49:53.932Z,2.10
2024-04-10T22:57:51.987Z,2.20
2024-04-10T23:01:52.031Z,2.00
2024-04-10T23:05:56.508Z,1.70
2024-04-10T23:09:52.054Z,1.70
2024-04-10T23:17:53.196Z,2.40
2024-04-10T23:21:51.995Z,1.90
2024-04-10T23:25:52.071Z,1.90
2024-04-10T23:29:53.618Z,2.00
2024-04-10T23:33:52.457Z,2.10
2024-04-10T23:37:52.355Z,2.00
2024-04-10T23:41:52.275Z,1.80
2024-04-10T23:45:53.623Z,2.20
2024-04-10T23:49:52.115Z,1.90
2024-04-10T23:53:52.223Z,2.00
2024-04-10T23:57:56.918Z,2.30
